createdAt,value
2018-12-21T00:02:14.631Z,11.77
2018-12-21T00:04:42.093Z,11.13
2018-12-21T00:07:09.639Z,11.27
2018-12-21T00:09:37.404Z,12.37
2018-12-21T00:12:05.097Z,10.80
2018-12-21T00:14:32.538Z,10.77
2018-12-21T00:16:59.992Z,11.40
2018-12-21T00:19:27.376Z,10.73
2018-12-21T00:21:54.773Z,10.40
2018-12-21T00:24:22.156Z,11.53
2018-12-21T00:26:49.756Z,11.17
2018-12-21T00:29:17.184Z,10.63
2018-12-21T00:31:50.124Z,11.43
2018-12-21T00:34:23.019Z,12.00
2018-12-21T00:36:56.012Z,11.17
2018-12-21T00:39:28.921Z,10.90
2018-12-21T00:41:55.790Z,11.30
2018-12-21T00:44:25.196Z,10.13
2018-12-21T00:46:54.604Z,10.27
2018-12-21T00:49:23.446Z,10.10
2018-12-21T00:51:50.909Z,10.47
2018-12-21T00:54:18.394Z,10.97
2018-12-21T00:56:45.836Z,10.20
2018-12-21T00:59:13.326Z,10.83
2018-12-21T01:01:40.785Z,10.10
2018-12-21T01:04:08.186Z,10.87
2018-12-21T01:06:35.642Z,10.90
2018-12-21T01:09:03.732Z,11.10
2018-12-21T01:11:31.168Z,11.30
2018-12-21T01:13:58.745Z,11.20
2018-12-21T01:16:26.205Z,11.17
2018-12-21T01:18:54.061Z,10.47
2018-12-21T01:21:21.900Z,10.90
2018-12-21T01:23:49.345Z,11.00
2018-12-21T01:26:16.731Z,11.80
2018-12-21T01:28:44.226Z,11.33
2018-12-21T01:31:11.761Z,11.13
2018-12-21T01:33:39.205Z,11.40
2018-12-21T01:36:06.681Z,11.17
2018-12-21T01:38:34.112Z,11.50
2018-12-21T01:41:02.005Z,11.30
2018-12-21T01:43:29.464Z,11.57
2018-12-21T01:45:57.095Z,11.30
2018-12-21T01:48:24.720Z,11.40
2018-12-21T01:50:52.242Z,11.70
2018-12-21T01:53:20.113Z,11.87
2018-12-21T01:55:47.551Z,11.50
2018-12-21T01:58:14.945Z,10.80
2018-12-21T02:00:42.375Z,11.73
2018-12-21T02:03:09.850Z,11.87
2018-12-21T02:05:37.399Z,12.93
2018-12-21T02:08:04.917Z,11.87
2018-12-21T02:10:32.312Z,10.37
2018-12-21T02:12:59.713Z,10.37
2018-12-21T02:15:27.609Z,10.87
2018-12-21T02:17:55.052Z,10.20
2018-12-21T02:20:22.553Z,10.63
2018-12-21T02:22:50.013Z,11.13
2018-12-21T02:25:17.497Z,11.40
2018-12-21T02:27:45.060Z,14.33
2018-12-21T02:30:12.539Z,12.20
2018-12-21T02:32:40.254Z,11.43
2018-12-21T02:35:07.709Z,10.27
2018-12-21T02:37:35.097Z,10.70
2018-12-21T02:40:03.776Z,10.80
2018-12-21T02:42:31.725Z,11.07
2018-12-21T02:44:59.113Z,11.33
2018-12-21T02:47:26.505Z,10.33
2018-12-21T02:49:54.092Z,11.77
2018-12-21T02:52:21.480Z,11.00
2018-12-21T02:54:49.078Z,11.50
2018-12-21T02:57:16.469Z,10.77
2018-12-21T02:59:43.858Z,10.97
2018-12-21T03:02:11.378Z,10.30
2018-12-21T03:04:38.973Z,11.43
2018-12-21T03:07:06.696Z,11.00
2018-12-21T03:09:34.233Z,10.30
2018-12-21T03:12:02.023Z,10.70
2018-12-21T03:14:29.521Z,11.10
2018-12-21T03:16:56.985Z,11.90
2018-12-21T03:19:24.434Z,10.90
2018-12-21T03:21:52.114Z,11.67
2018-12-21T03:24:19.550Z,11.13
2018-12-21T03:26:47.101Z,10.83
2018-12-21T03:29:14.494Z,10.63
2018-12-21T03:31:42.100Z,10.77
2018-12-21T03:34:09.602Z,10.67
2018-12-21T03:36:37.127Z,10.77
2018-12-21T03:39:07.282Z,10.37
2018-12-21T03:41:36.021Z,11.03
2018-12-21T03:44:03.497Z,10.73
2018-12-21T03:46:31.344Z,10.83
2018-12-21T03:48:58.942Z,10.53
2018-12-21T03:51:26.511Z,10.37
2018-12-21T03:53:54.116Z,10.10
2018-12-21T03:56:21.577Z,10.53
2018-12-21T03:58:48.973Z,11.37
2018-12-21T04:01:16.561Z,9.90
2018-12-21T04:03:44.094Z,10.33
2018-12-21T04:06:11.821Z,11.00
2018-12-21T04:08:39.277Z,13.43
2018-12-21T04:11:06.655Z,12.33
2018-12-21T04:13:34.060Z,9.83
2018-12-21T04:16:01.452Z,10.40
2018-12-21T04:18:29.104Z,10.70
2018-12-21T04:20:56.565Z,9.70
2018-12-21T04:23:24.438Z,11.33
2018-12-21T04:25:51.894Z,10.60
2018-12-21T04:28:19.479Z,11.00
2018-12-21T04:30:46.873Z,11.30
2018-12-21T04:33:14.410Z,11.63
2018-12-21T04:35:42.130Z,11.17
2018-12-21T04:38:10.949Z,11.70
2018-12-21T04:40:38.354Z,11.50
2018-12-21T04:43:05.808Z,11.00
2018-12-21T04:45:33.216Z,10.97
2018-12-21T04:48:00.683Z,11.40
2018-12-21T04:50:28.102Z,10.30
2018-12-21T04:52:55.569Z,11.47
2018-12-21T04:55:23.166Z,11.33
2018-12-21T04:57:50.563Z,11.30
2018-12-21T05:00:18.074Z,10.77
2018-12-21T05:02:45.469Z,11.43
2018-12-21T05:05:12.874Z,10.87
2018-12-21T05:07:40.261Z,10.13
2018-12-21T05:10:08.194Z,10.13
2018-12-21T05:12:35.974Z,10.17
2018-12-21T05:15:04.249Z,10.67
2018-12-21T05:17:31.640Z,10.83
2018-12-21T05:19:59.634Z,11.80
2018-12-21T05:22:27.091Z,11.53
2018-12-21T05:24:54.495Z,11.90
2018-12-21T05:27:22.432Z,11.30
2018-12-21T05:29:49.846Z,12.03
2018-12-21T05:32:17.331Z,11.97
2018-12-21T05:34:45.177Z,11.73
2018-12-21T05:37:12.799Z,12.10
2018-12-21T05:39:40.286Z,11.43
2018-12-21T05:42:07.667Z,12.13
2018-12-21T05:44:35.058Z,11.60
2018-12-21T05:47:02.901Z,11.20
2018-12-21T05:49:30.284Z,11.87
2018-12-21T05:51:57.821Z,11.33
2018-12-21T05:54:25.513Z,11.10
2018-12-21T05:56:52.910Z,11.63
2018-12-21T05:59:20.598Z,11.43
2018-12-21T06:01:48.050Z,11.93
2018-12-21T06:04:15.588Z,11.80
2018-12-21T06:06:42.992Z,10.93
2018-12-21T06:09:10.382Z,11.87
2018-12-21T06:11:37.778Z,12.10
2018-12-21T06:14:05.169Z,11.10
2018-12-21T06:16:32.571Z,11.13
2018-12-21T06:18:59.951Z,11.07
2018-12-21T06:21:27.422Z,11.43
2018-12-21T06:23:54.836Z,11.30
2018-12-21T06:26:22.226Z,11.83
2018-12-21T06:28:49.818Z,11.40
2018-12-21T06:31:17.636Z,12.20
2018-12-21T06:33:45.311Z,12.50
2018-12-21T06:36:12.720Z,11.27
2018-12-21T06:38:40.378Z,11.50
2018-12-21T06:41:07.813Z,12.00
2018-12-21T06:43:35.598Z,11.40
2018-12-21T06:46:03.104Z,12.37
2018-12-21T06:48:30.561Z,11.30
2018-12-21T06:50:58.150Z,12.80
2018-12-21T06:53:25.617Z,11.60
2018-12-21T06:55:53.005Z,12.63
2018-12-21T06:58:20.530Z,12.03
2018-12-21T07:00:48.005Z,12.07
2018-12-21T07:03:17.238Z,12.93
2018-12-21T07:05:44.951Z,12.23
2018-12-21T07:08:12.342Z,12.43
2018-12-21T07:10:40.129Z,12.43
2018-12-21T07:13:07.521Z,12.30
2018-12-21T07:15:35.462Z,12.60
2018-12-21T07:18:03.002Z,12.00
2018-12-21T07:20:30.388Z,12.00
2018-12-21T07:22:57.970Z,12.10
2018-12-21T07:25:25.709Z,12.70
2018-12-21T07:27:53.368Z,12.53
2018-12-21T07:30:20.760Z,12.20
2018-12-21T07:32:48.146Z,12.30
2018-12-21T07:35:15.662Z,12.33
2018-12-21T07:37:43.394Z,11.90
2018-12-21T07:40:10.852Z,12.10
2018-12-21T07:42:38.446Z,12.47
2018-12-21T07:45:08.158Z,11.73
2018-12-21T07:47:35.685Z,11.63
2018-12-21T07:50:03.275Z,11.63
2018-12-21T07:52:30.803Z,12.13
2018-12-21T07:54:58.184Z,12.30
2018-12-21T07:57:25.620Z,11.67
2018-12-21T07:59:53.378Z,12.60
2018-12-21T08:02:20.821Z,11.40
2018-12-21T08:04:48.361Z,12.00
2018-12-21T08:07:16.157Z,12.07
2018-12-21T08:09:43.549Z,12.00
2018-12-21T08:12:11.237Z,12.10
2018-12-21T08:14:38.772Z,12.73
2018-12-21T08:17:06.167Z,12.20
2018-12-21T08:19:33.564Z,12.70
2018-12-21T08:22:00.981Z,12.57
2018-12-21T08:24:28.448Z,11.70
2018-12-21T08:26:56.235Z,12.87
2018-12-21T08:29:23.699Z,12.47
2018-12-21T08:31:51.281Z,11.87
2018-12-21T08:34:19.004Z,12.90
2018-12-21T08:36:46.402Z,13.43
2018-12-21T08:39:13.934Z,12.53
2018-12-21T08:41:41.381Z,13.30
2018-12-21T08:44:09.168Z,13.60
2018-12-21T08:46:36.630Z,14.07
2018-12-21T08:49:04.037Z,14.30
2018-12-21T08:51:31.601Z,13.47
2018-12-21T08:53:59.033Z,14.10
2018-12-21T08:56:26.425Z,13.27
2018-12-21T08:58:53.996Z,13.20
2018-12-21T09:01:21.462Z,13.10
2018-12-21T09:03:48.915Z,13.30
2018-12-21T09:06:18.582Z,13.20
2018-12-21T09:08:46.195Z,12.90
2018-12-21T09:11:13.617Z,13.50
2018-12-21T09:13:41.002Z,13.20
2018-12-21T09:16:08.486Z,13.80
2018-12-21T09:18:36.108Z,13.07
2018-12-21T09:21:03.557Z,13.10
2018-12-21T09:23:31.025Z,12.83
2018-12-21T09:25:58.771Z,12.90
2018-12-21T09:28:26.308Z,12.87
2018-12-21T09:30:53.934Z,13.00
2018-12-21T09:33:21.334Z,12.80
2018-12-21T09:35:48.945Z,13.73
2018-12-21T09:38:16.381Z,12.90
2018-12-21T09:40:44.049Z,12.67
2018-12-21T09:43:11.436Z,14.10
2018-12-21T09:45:38.957Z,13.07
2018-12-21T09:48:06.626Z,13.30
2018-12-21T09:50:34.011Z,13.70
2018-12-21T09:53:01.401Z,13.50
2018-12-21T09:55:28.996Z,14.30
2018-12-21T09:57:56.531Z,13.10
2018-12-21T10:00:24.000Z,14.63
2018-12-21T10:02:51.396Z,13.10
2018-12-21T10:05:19.032Z,13.77
2018-12-21T10:07:46.498Z,13.90
2018-12-21T10:10:14.316Z,13.70
2018-12-21T10:12:41.814Z,13.20
2018-12-21T10:15:09.246Z,15.00
2018-12-21T10:17:36.684Z,16.17
2018-12-21T10:20:05.964Z,16.23
2018-12-21T10:22:33.416Z,14.13
2018-12-21T10:25:01.390Z,14.20
2018-12-21T10:27:29.012Z,14.37
2018-12-21T10:29:56.420Z,14.40
2018-12-21T10:32:23.807Z,14.40
2018-12-21T10:34:51.252Z,15.07
2018-12-21T10:37:18.737Z,14.40
2018-12-21T10:39:46.233Z,15.50
2018-12-21T10:42:13.870Z,14.33
2018-12-21T10:44:41.416Z,15.63
2018-12-21T10:47:08.797Z,13.63
2018-12-21T10:49:36.185Z,13.63
2018-12-21T10:52:03.766Z,14.27
2018-12-21T10:54:31.308Z,15.00
2018-12-21T10:56:58.729Z,14.43
2018-12-21T10:59:26.362Z,15.00
2018-12-21T11:01:53.760Z,14.40
2018-12-21T11:04:21.348Z,15.00
2018-12-21T11:06:48.919Z,15.00
2018-12-21T11:09:16.845Z,13.80
2018-12-21T11:11:44.218Z,15.50
2018-12-21T11:14:11.649Z,13.40
2018-12-21T11:16:39.198Z,14.80
2018-12-21T11:19:06.669Z,14.60
2018-12-21T11:21:34.109Z,15.23
2018-12-21T11:24:01.585Z,14.70
2018-12-21T11:26:29.052Z,14.50
2018-12-21T11:28:56.486Z,14.20
2018-12-21T11:31:24.055Z,13.87
2018-12-21T11:33:51.533Z,13.60
2018-12-21T11:36:19.037Z,14.03
2018-12-21T11:38:46.519Z,13.47
2018-12-21T11:41:14.189Z,13.60
2018-12-21T11:43:41.760Z,13.70
2018-12-21T11:46:09.504Z,13.33
2018-12-21T11:48:36.973Z,12.30
2018-12-21T11:51:04.367Z,12.73
2018-12-21T11:53:32.281Z,11.80
2018-12-21T11:55:59.684Z,11.60
2018-12-21T11:58:27.236Z,12.13
2018-12-21T12:00:54.797Z,11.60
2018-12-21T12:03:22.187Z,12.00
2018-12-21T12:05:49.716Z,11.73
2018-12-21T12:08:17.110Z,11.90
2018-12-21T12:10:44.586Z,11.90
2018-12-21T12:13:12.365Z,11.80
2018-12-21T12:15:40.222Z,11.20
2018-12-21T12:18:07.609Z,11.13
2018-12-21T12:20:35.287Z,10.50
2018-12-21T12:23:02.800Z,10.23
2018-12-21T12:25:30.185Z,10.07
2018-12-21T12:27:57.704Z,10.60
2018-12-21T12:30:25.168Z,10.30
2018-12-21T12:32:52.875Z,10.00
2018-12-21T12:35:20.317Z,11.03
2018-12-21T12:37:47.714Z,11.63
2018-12-21T12:40:15.405Z,10.00
2018-12-21T12:42:43.250Z,9.00
2018-12-21T12:45:10.734Z,8.70
2018-12-21T12:47:38.119Z,8.50
2018-12-21T12:50:06.009Z,9.80
2018-12-21T12:52:33.472Z,9.50
2018-12-21T12:55:02.587Z,9.97
2018-12-21T12:57:30.354Z,10.10
2018-12-21T12:59:57.821Z,9.97
2018-12-21T13:02:25.388Z,10.20
2018-12-21T13:04:52.889Z,8.97
2018-12-21T13:07:20.300Z,9.30
2018-12-21T13:09:47.714Z,9.20
2018-12-21T13:12:15.224Z,9.73
2018-12-21T13:14:42.804Z,9.40
2018-12-21T13:17:10.577Z,8.80
2018-12-21T13:19:38.004Z,9.33
2018-12-21T13:22:05.458Z,9.87
2018-12-21T13:24:34.078Z,9.77
2018-12-21T13:27:01.807Z,9.87
2018-12-21T13:29:29.266Z,8.80
2018-12-21T13:31:56.950Z,9.17
2018-12-21T13:34:24.465Z,8.57
2018-12-21T13:36:51.853Z,8.77
2018-12-21T13:39:19.255Z,8.80
2018-12-21T13:41:46.684Z,8.60
2018-12-21T13:44:14.181Z,9.00
2018-12-21T13:46:41.588Z,8.70
2018-12-21T13:49:09.103Z,7.87
2018-12-21T13:51:36.789Z,8.50
2018-12-21T13:54:04.264Z,7.83
2018-12-21T13:56:31.836Z,9.43
2018-12-21T13:58:59.260Z,8.50
2018-12-21T14:01:27.182Z,8.10
2018-12-21T14:03:54.577Z,8.03
2018-12-21T14:06:21.993Z,7.70
2018-12-21T14:08:49.399Z,8.30
2018-12-21T14:11:16.884Z,8.30
2018-12-21T14:13:44.651Z,7.80
2018-12-21T14:16:12.505Z,8.57
2018-12-21T14:18:40.299Z,8.40
2018-12-21T14:21:07.940Z,8.47
2018-12-21T14:23:35.378Z,8.30
2018-12-21T14:26:02.927Z,8.50
2018-12-21T14:28:30.493Z,7.50
2018-12-21T14:30:58.328Z,7.50
2018-12-21T14:33:25.733Z,7.77
2018-12-21T14:35:53.450Z,7.57
2018-12-21T14:38:20.865Z,6.60
2018-12-21T14:40:48.823Z,7.80
2018-12-21T14:43:17.061Z,6.87
2018-12-21T14:45:44.642Z,7.60
2018-12-21T14:48:12.188Z,7.80
2018-12-21T14:50:39.564Z,7.37
2018-12-21T14:53:06.988Z,7.47
2018-12-21T14:55:37.638Z,7.33
2018-12-21T14:58:04.415Z,7.47
2018-12-21T15:00:31.926Z,7.23
2018-12-21T15:02:59.430Z,7.20
2018-12-21T15:05:26.881Z,7.87
2018-12-21T15:07:54.341Z,6.97
2018-12-21T15:10:22.024Z,7.83
2018-12-21T15:12:49.435Z,7.93
2018-12-21T15:15:16.914Z,8.10
2018-12-21T15:17:44.364Z,7.93
2018-12-21T15:20:11.878Z,7.90
2018-12-21T15:22:39.425Z,12.80
2018-12-21T15:25:07.133Z,8.63
2018-12-21T15:27:35.801Z,6.90
2018-12-21T15:30:04.503Z,9.47
2018-12-21T15:32:31.996Z,13.17
2018-12-21T15:35:00.203Z,11.43
2018-12-21T15:37:27.736Z,7.80
2018-12-21T15:39:55.113Z,9.90
2018-12-21T15:42:22.579Z,10.33
2018-12-21T15:44:50.097Z,14.60
2018-12-21T15:47:18.565Z,10.73
2018-12-21T15:49:46.339Z,22.20
2018-12-21T15:52:14.130Z,12.97
2018-12-21T15:54:41.533Z,20.50
2018-12-21T15:57:08.921Z,13.00
2018-12-21T15:59:36.625Z,16.80
2018-12-21T16:02:04.198Z,17.43
2018-12-21T16:04:32.666Z,21.23
2018-12-21T16:07:00.465Z,17.97
2018-12-21T16:09:27.933Z,15.37
2018-12-21T16:11:55.341Z,20.63
2018-12-21T16:14:22.773Z,21.73
2018-12-21T16:16:50.384Z,24.00
2018-12-21T16:19:17.852Z,20.97
2018-12-21T16:21:45.217Z,18.87
2018-12-21T16:24:12.693Z,23.27
2018-12-21T16:26:40.221Z,16.83
2018-12-21T16:29:07.733Z,29.83
2018-12-21T16:31:35.126Z,26.27
2018-12-21T16:34:02.920Z,21.30
2018-12-21T16:36:30.433Z,19.50
2018-12-21T16:38:57.868Z,24.13
2018-12-21T16:41:25.260Z,19.63
2018-12-21T16:43:52.802Z,21.47
2018-12-21T16:46:20.257Z,18.27
2018-12-21T16:48:47.662Z,30.63
2018-12-21T16:51:15.211Z,21.90
2018-12-21T16:53:42.792Z,26.50
2018-12-21T16:56:12.666Z,19.50
2018-12-21T16:58:39.949Z,23.23
2018-12-21T17:01:07.378Z,23.80
2018-12-21T17:03:34.811Z,24.17
2018-12-21T17:06:02.252Z,20.17
2018-12-21T17:08:29.749Z,19.60
2018-12-21T17:10:57.130Z,22.57
2018-12-21T17:13:24.896Z,22.97
2018-12-21T17:15:52.764Z,23.90
2018-12-21T17:18:20.230Z,14.13
2018-12-21T17:20:47.642Z,24.93
2018-12-21T17:23:15.519Z,18.40
2018-12-21T17:25:42.925Z,23.43
2018-12-21T17:28:10.484Z,21.30
2018-12-21T17:30:37.921Z,21.90
2018-12-21T17:33:05.434Z,19.20
2018-12-21T17:35:33.131Z,26.97
2018-12-21T17:38:00.598Z,23.47
2018-12-21T17:40:28.228Z,22.13
2018-12-21T17:42:55.772Z,25.03
2018-12-21T17:45:23.159Z,22.90
2018-12-21T17:47:50.544Z,29.03
2018-12-21T17:50:17.992Z,28.67
2018-12-21T17:52:45.466Z,28.90
2018-12-21T17:55:12.984Z,24.97
2018-12-21T17:57:40.495Z,28.73
2018-12-21T18:00:12.698Z,29.63
2018-12-21T18:02:40.532Z,32.03
2018-12-21T18:05:08.280Z,26.57
2018-12-21T18:07:35.675Z,29.70
2018-12-21T18:10:05.841Z,23.53
2018-12-21T18:12:33.243Z,40.07
2018-12-21T18:15:01.039Z,24.53
2018-12-21T18:17:28.581Z,27.33
2018-12-21T18:19:56.041Z,26.00
2018-12-21T18:22:23.876Z,25.10
2018-12-21T18:24:51.300Z,34.20
2018-12-21T18:27:18.697Z,31.87
2018-12-21T18:29:46.449Z,24.10
2018-12-21T18:32:16.143Z,27.40
2018-12-21T18:34:43.688Z,27.53
2018-12-21T18:37:11.674Z,25.93
2018-12-21T18:39:39.430Z,26.50
2018-12-21T18:42:06.872Z,27.23
2018-12-21T18:44:34.840Z,34.83
2018-12-21T18:47:02.325Z,29.80
2018-12-21T18:49:30.075Z,28.03
2018-12-21T18:51:59.746Z,28.13
2018-12-21T18:54:27.038Z,33.90
2018-12-21T18:56:54.901Z,25.80
2018-12-21T18:59:22.342Z,31.43
2018-12-21T19:01:49.734Z,35.37
2018-12-21T19:04:17.133Z,30.00
2018-12-21T19:06:44.524Z,26.83
2018-12-21T19:09:12.361Z,34.17
2018-12-21T19:11:40.058Z,32.20
2018-12-21T19:14:07.460Z,22.53
2018-12-21T19:16:34.973Z,31.50
2018-12-21T19:19:02.427Z,21.80
2018-12-21T19:21:29.906Z,29.43
2018-12-21T19:23:57.480Z,29.37
2018-12-21T19:26:25.216Z,29.20
2018-12-21T19:28:52.677Z,30.87
2018-12-21T19:31:20.198Z,28.97
2018-12-21T19:33:47.630Z,24.57
2018-12-21T19:36:15.265Z,36.23
2018-12-21T19:38:42.816Z,21.43
2018-12-21T19:41:11.912Z,31.07
2018-12-21T19:43:39.728Z,33.30
2018-12-21T19:46:07.116Z,30.90
2018-12-21T19:48:34.519Z,33.80
2018-12-21T19:51:01.974Z,27.83
2018-12-21T19:53:29.364Z,25.83
2018-12-21T19:55:56.846Z,22.30
2018-12-21T19:58:24.371Z,24.03
2018-12-21T20:00:51.801Z,32.80
2018-12-21T20:03:19.248Z,39.30
2018-12-21T20:05:46.760Z,30.70
2018-12-21T20:08:14.220Z,31.37
2018-12-21T20:10:41.608Z,23.23
2018-12-21T20:13:09.006Z,25.47
2018-12-21T20:15:36.462Z,25.83
2018-12-21T20:18:03.933Z,29.00
2018-12-21T20:20:31.480Z,26.63
2018-12-21T20:22:58.905Z,29.57
2018-12-21T20:25:26.723Z,36.03
2018-12-21T20:27:54.227Z,36.70
2018-12-21T20:30:21.710Z,26.37
2018-12-21T20:32:49.106Z,37.47
2018-12-21T20:35:16.668Z,35.47
2018-12-21T20:37:44.059Z,34.70
2018-12-21T20:40:12.612Z,38.07
2018-12-21T20:42:40.041Z,35.07
2018-12-21T20:45:10.329Z,30.77
2018-12-21T20:47:37.848Z,30.43
2018-12-21T20:50:11.451Z,40.90
2018-12-21T20:52:38.912Z,26.80
2018-12-21T20:55:09.240Z,29.87
2018-12-21T20:57:39.564Z,32.10
2018-12-21T21:00:11.563Z,33.20
2018-12-21T21:02:39.117Z,26.43
2018-12-21T21:05:06.634Z,34.37
2018-12-21T21:07:34.307Z,29.90
2018-12-21T21:10:01.779Z,24.97
2018-12-21T21:12:29.244Z,28.80
2018-12-21T21:14:56.633Z,35.47
2018-12-21T21:17:24.554Z,35.13
2018-12-21T21:19:52.000Z,33.43
2018-12-21T21:22:19.478Z,36.63
2018-12-21T21:24:47.339Z,33.50
2018-12-21T21:27:14.805Z,35.60
2018-12-21T21:29:42.790Z,40.00
2018-12-21T21:32:10.334Z,26.37
2018-12-21T21:34:37.770Z,29.53
2018-12-21T21:37:05.241Z,29.10
2018-12-21T21:39:32.624Z,23.03
2018-12-21T21:42:00.016Z,34.30
2018-12-21T21:44:27.600Z,31.23
2018-12-21T21:46:55.064Z,39.53
2018-12-21T21:49:22.453Z,27.37
2018-12-21T21:51:50.173Z,32.53
2018-12-21T21:54:17.561Z,28.13
2018-12-21T21:56:44.966Z,37.23
2018-12-21T21:59:12.488Z,34.43
2018-12-21T22:01:39.979Z,26.30
2018-12-21T22:04:07.693Z,29.83
2018-12-21T22:06:35.138Z,25.97
2018-12-21T22:09:02.521Z,35.30
2018-12-21T22:11:30.176Z,33.87
2018-12-21T22:13:57.936Z,42.83
2018-12-21T22:16:25.785Z,33.10
2018-12-21T22:18:53.374Z,32.27
2018-12-21T22:21:20.843Z,30.03
2018-12-21T22:23:48.319Z,25.60
2018-12-21T22:26:15.710Z,38.13
2018-12-21T22:28:43.469Z,32.47
2018-12-21T22:31:11.069Z,30.60
2018-12-21T22:33:38.805Z,35.40
2018-12-21T22:36:06.196Z,35.50
2018-12-21T22:38:33.726Z,37.07
2018-12-21T22:41:02.003Z,25.07
2018-12-21T22:43:29.862Z,39.70
2018-12-21T22:45:57.248Z,33.70
2018-12-21T22:48:24.900Z,32.13
2018-12-21T22:50:52.508Z,30.17
2018-12-21T22:53:20.021Z,29.23
2018-12-21T22:55:47.560Z,32.30
2018-12-21T22:58:14.945Z,33.23
2018-12-21T23:00:42.928Z,41.83
2018-12-21T23:03:10.347Z,35.20
2018-12-21T23:05:37.801Z,31.97
2018-12-21T23:08:05.312Z,24.77
2018-12-21T23:10:33.906Z,27.87
2018-12-21T23:13:01.295Z,25.57
2018-12-21T23:15:28.853Z,36.80
2018-12-21T23:17:56.452Z,24.67
2018-12-21T23:20:23.891Z,28.63
2018-12-21T23:22:51.328Z,29.07
2018-12-21T23:25:18.723Z,32.53
2018-12-21T23:27:46.553Z,37.77
2018-12-21T23:30:13.949Z,32.00
2018-12-21T23:32:41.488Z,29.43
2018-12-21T23:35:08.924Z,28.73
2018-12-21T23:37:36.371Z,33.00
2018-12-21T23:40:05.069Z,37.13
2018-12-21T23:42:32.462Z,32.60
2018-12-21T23:44:59.971Z,34.37
2018-12-21T23:47:27.565Z,31.67
2018-12-21T23:49:55.302Z,30.37
2018-12-21T23:52:22.762Z,34.20
2018-12-21T23:54:50.148Z,43.93
2018-12-21T23:57:17.542Z,29.53
2018-12-21T23:59:44.946Z,36.47
